sensor_id;sensor_type;location;lat;lon;timestamp;pressure;altitude;pressure_sealevel;temperature;humidity
58072;BME280;60383;46.626;18.866;2023-02-20T00:00:29;101241.81;;;6.84;52.50
58072;BME280;60383;46.626;18.866;2023-02-20T00:02:55;101251.22;;;6.67;52.99
58072;BME280;60383;46.626;18.866;2023-02-20T00:05:21;101251.09;;;6.56;53.05
58072;BME280;60383;46.626;18.866;2023-02-20T00:07:46;101254.25;;;6.63;53.63
58072;BME280;60383;46.626;18.866;2023-02-20T00:10:12;101257.16;;;6.85;53.08
58072;BME280;60383;46.626;18.866;2023-02-20T00:12:38;101261.97;;;6.56;52.66
58072;BME280;60383;46.626;18.866;2023-02-20T00:15:04;101259.69;;;6.76;53.09
58072;BME280;60383;46.626;18.866;2023-02-20T00:17:30;101260.69;;;6.62;53.02
58072;BME280;60383;46.626;18.866;2023-02-20T00:19:55;101257.09;;;6.48;53.54
58072;BME280;60383;46.626;18.866;2023-02-20T00:22:21;101254.63;;;6.45;53.61
58072;BME280;60383;46.626;18.866;2023-02-20T00:24:47;101257.09;;;6.35;53.93
58072;BME280;60383;46.626;18.866;2023-02-20T00:27:13;101246.75;;;6.53;53.91
58072;BME280;60383;46.626;18.866;2023-02-20T00:29:39;101247.00;;;6.50;54.13
58072;BME280;60383;46.626;18.866;2023-02-20T00:32:04;101243.28;;;6.51;54.13
58072;BME280;60383;46.626;18.866;2023-02-20T00:34:30;101250.47;;;6.39;54.40
58072;BME280;60383;46.626;18.866;2023-02-20T00:36:55;101256.81;;;6.27;55.25
58072;BME280;60383;46.626;18.866;2023-02-20T00:39:21;101257.03;;;6.37;54.05
58072;BME280;60383;46.626;18.866;2023-02-20T00:41:47;101259.63;;;6.26;54.39
58072;BME280;60383;46.626;18.866;2023-02-20T00:44:13;101259.28;;;6.04;54.93
58072;BME280;60383;46.626;18.866;2023-02-20T00:46:38;101257.34;;;6.06;55.15
58072;BME280;60383;46.626;18.866;2023-02-20T00:49:04;101265.34;;;5.82;56.38
58072;BME280;60383;46.626;18.866;2023-02-20T00:51:29;101273.09;;;6.01;55.89
58072;BME280;60383;46.626;18.866;2023-02-20T00:53:56;101275.25;;;5.96;56.71
58072;BME280;60383;46.626;18.866;2023-02-20T00:56:22;101285.94;;;5.99;56.07
58072;BME280;60383;46.626;18.866;2023-02-20T00:58:48;101280.41;;;6.01;56.13
58072;BME280;60383;46.626;18.866;2023-02-20T01:01:13;101281.88;;;5.92;55.47
58072;BME280;60383;46.626;18.866;2023-02-20T01:03:41;101278.38;;;5.90;56.54
58072;BME280;60383;46.626;18.866;2023-02-20T01:06:06;101289.16;;;5.79;56.29
58072;BME280;60383;46.626;18.866;2023-02-20T01:08:32;101291.06;;;6.17;55.92
58072;BME280;60383;46.626;18.866;2023-02-20T01:10:57;101287.94;;;6.10;55.62
58072;BME280;60383;46.626;18.866;2023-02-20T01:13:23;101291.00;;;5.91;56.64
58072;BME280;60383;46.626;18.866;2023-02-20T01:15:49;101295.84;;;6.00;56.60
58072;BME280;60383;46.626;18.866;2023-02-20T01:18:15;101301.22;;;5.87;56.81
58072;BME280;60383;46.626;18.866;2023-02-20T01:20:40;101300.69;;;5.95;56.58
58072;BME280;60383;46.626;18.866;2023-02-20T01:23:06;101295.44;;;6.06;55.86
58072;BME280;60383;46.626;18.866;2023-02-20T01:25:31;101304.25;;;6.10;56.06
58072;BME280;60383;46.626;18.866;2023-02-20T01:27:57;101308.94;;;6.21;56.04
58072;BME280;60383;46.626;18.866;2023-02-20T01:30:22;101310.88;;;6.19;55.99
58072;BME280;60383;46.626;18.866;2023-02-20T01:32:48;101316.09;;;6.09;56.55
58072;BME280;60383;46.626;18.866;2023-02-20T01:35:14;101317.28;;;6.18;55.95
58072;BME280;60383;46.626;18.866;2023-02-20T01:37:40;101314.94;;;5.86;56.83
58072;BME280;60383;46.626;18.866;2023-02-20T01:40:06;101326.13;;;5.94;56.29
58072;BME280;60383;46.626;18.866;2023-02-20T01:42:32;101317.59;;;5.73;57.44
58072;BME280;60383;46.626;18.866;2023-02-20T01:47:46;101329.31;;;5.60;58.64
58072;BME280;60383;46.626;18.866;2023-02-20T01:50:13;101338.34;;;5.34;59.02
58072;BME280;60383;46.626;18.866;2023-02-20T01:52:39;101335.50;;;5.35;59.02
58072;BME280;60383;46.626;18.866;2023-02-20T01:55:13;101330.66;;;5.26;59.24
58072;BME280;60383;46.626;18.866;2023-02-20T01:57:43;101322.59;;;5.39;59.25
58072;BME280;60383;46.626;18.866;2023-02-20T02:00:15;101316.56;;;5.48;59.47
58072;BME280;60383;46.626;18.866;2023-02-20T02:02:48;101322.28;;;5.43;59.76
58072;BME280;60383;46.626;18.866;2023-02-20T02:05:16;101321.88;;;5.50;59.53
58072;BME280;60383;46.626;18.866;2023-02-20T02:07:42;101310.28;;;5.33;59.56
58072;BME280;60383;46.626;18.866;2023-02-20T02:10:12;101308.00;;;5.54;58.98
58072;BME280;60383;46.626;18.866;2023-02-20T02:12:39;101314.09;;;5.16;60.00
58072;BME280;60383;46.626;18.866;2023-02-20T02:15:16;101311.25;;;5.32;59.94
58072;BME280;60383;46.626;18.866;2023-02-20T02:40:02;101331.91;;;5.62;58.55
58072;BME280;60383;46.626;18.866;2023-02-20T02:45:28;101351.84;;;5.63;58.78
58072;BME280;60383;46.626;18.866;2023-02-20T02:47:56;101360.47;;;5.55;58.47
58072;BME280;60383;46.626;18.866;2023-02-20T02:50:36;101358.69;;;5.68;58.69
58072;BME280;60383;46.626;18.866;2023-02-20T02:53:06;101362.25;;;5.83;58.87
58072;BME280;60383;46.626;18.866;2023-02-20T02:55:32;101357.31;;;6.03;57.90
58072;BME280;60383;46.626;18.866;2023-02-20T02:57:59;101352.84;;;5.74;58.35
58072;BME280;60383;46.626;18.866;2023-02-20T03:00:25;101357.28;;;5.75;58.20
58072;BME280;60383;46.626;18.866;2023-02-20T03:03:00;101361.16;;;5.58;59.16
58072;BME280;60383;46.626;18.866;2023-02-20T03:08:26;101369.31;;;5.17;60.45
58072;BME280;60383;46.626;18.866;2023-02-20T03:13:44;101371.38;;;4.99;61.65
58072;BME280;60383;46.626;18.866;2023-02-20T03:16:39;101363.72;;;4.76;62.27
58072;BME280;60383;46.626;18.866;2023-02-20T03:19:08;101361.75;;;4.78;62.29
58072;BME280;60383;46.626;18.866;2023-02-20T03:21:40;101362.94;;;4.74;61.56
58072;BME280;60383;46.626;18.866;2023-02-20T03:24:10;101358.47;;;4.88;62.04
58072;BME280;60383;46.626;18.866;2023-02-20T03:26:38;101362.34;;;4.98;61.02
58072;BME280;60383;46.626;18.866;2023-02-20T03:29:13;101360.78;;;5.08;60.69
58072;BME280;60383;46.626;18.866;2023-02-20T03:31:49;101363.66;;;5.20;60.00
58072;BME280;60383;46.626;18.866;2023-02-20T03:34:21;101358.44;;;5.17;59.94
58072;BME280;60383;46.626;18.866;2023-02-20T03:37:18;101371.50;;;5.39;59.21
58072;BME280;60383;46.626;18.866;2023-02-20T03:40:07;101367.25;;;5.35;58.73
58072;BME280;60383;46.626;18.866;2023-02-20T03:42:57;101367.69;;;5.41;58.57
58072;BME280;60383;46.626;18.866;2023-02-20T03:45:43;101372.56;;;5.36;59.11
58072;BME280;60383;46.626;18.866;2023-02-20T03:50:50;101382.38;;;5.24;59.56
58072;BME280;60383;46.626;18.866;2023-02-20T03:53:16;101384.59;;;5.32;59.43
58072;BME280;60383;46.626;18.866;2023-02-20T03:55:42;101389.28;;;5.16;59.21
58072;BME280;60383;46.626;18.866;2023-02-20T03:58:10;101374.72;;;5.31;59.22
58072;BME280;60383;46.626;18.866;2023-02-20T04:00:41;101377.03;;;5.37;58.58
58072;BME280;60383;46.626;18.866;2023-02-20T04:03:15;101372.56;;;5.36;58.92
58072;BME280;60383;46.626;18.866;2023-02-20T04:05:43;101368.03;;;5.22;58.73
58072;BME280;60383;46.626;18.866;2023-02-20T04:10:43;101363.00;;;5.16;59.56
58072;BME280;60383;46.626;18.866;2023-02-20T04:13:12;101355.34;;;5.08;59.66
58072;BME280;60383;46.626;18.866;2023-02-20T04:15:38;101357.84;;;5.11;59.65
58072;BME280;60383;46.626;18.866;2023-02-20T04:18:13;101350.88;;;5.22;59.68
58072;BME280;60383;46.626;18.866;2023-02-20T04:20:39;101354.44;;;5.22;59.13
58072;BME280;60383;46.626;18.866;2023-02-20T04:23:13;101357.94;;;5.24;59.33
58072;BME280;60383;46.626;18.866;2023-02-20T04:25:46;101342.13;;;5.31;58.76
58072;BME280;60383;46.626;18.866;2023-02-20T04:28:13;101353.59;;;5.07;58.79
58072;BME280;60383;46.626;18.866;2023-02-20T04:30:39;101347.19;;;5.23;60.35
58072;BME280;60383;46.626;18.866;2023-02-20T04:33:05;101356.00;;;5.54;58.09
58072;BME280;60383;46.626;18.866;2023-02-20T04:35:31;101351.06;;;5.60;57.23
58072;BME280;60383;46.626;18.866;2023-02-20T04:37:56;101358.94;;;5.51;58.51
58072;BME280;60383;46.626;18.866;2023-02-20T04:40:23;101358.22;;;5.34;58.25
58072;BME280;60383;46.626;18.866;2023-02-20T04:42:49;101351.34;;;5.28;58.58
58072;BME280;60383;46.626;18.866;2023-02-20T04:45:15;101351.91;;;5.34;58.60
58072;BME280;60383;46.626;18.866;2023-02-20T04:47:42;101362.50;;;5.38;58.24
58072;BME280;60383;46.626;18.866;2023-02-20T04:50:08;101360.78;;;5.50;57.17
58072;BME280;60383;46.626;18.866;2023-02-20T04:52:34;101369.56;;;5.41;58.25
58072;BME280;60383;46.626;18.866;2023-02-20T04:54:59;101368.06;;;5.50;58.43
58072;BME280;60383;46.626;18.866;2023-02-20T04:57:25;101367.78;;;5.54;57.78
58072;BME280;60383;46.626;18.866;2023-02-20T04:59:50;101375.94;;;5.54;58.04
58072;BME280;60383;46.626;18.866;2023-02-20T05:02:16;101364.47;;;5.49;59.40
58072;BME280;60383;46.626;18.866;2023-02-20T05:04:41;101370.41;;;5.41;59.03
58072;BME280;60383;46.626;18.866;2023-02-20T05:07:07;101371.97;;;5.46;58.36
58072;BME280;60383;46.626;18.866;2023-02-20T05:09:32;101362.94;;;5.45;58.24
58072;BME280;60383;46.626;18.866;2023-02-20T05:11:58;101364.78;;;5.44;58.07
58072;BME280;60383;46.626;18.866;2023-02-20T05:14:23;101354.72;;;5.32;59.11
58072;BME280;60383;46.626;18.866;2023-02-20T05:16:49;101364.03;;;5.28;58.71
58072;BME280;60383;46.626;18.866;2023-02-20T05:19:16;101355.03;;;5.27;59.11
58072;BME280;60383;46.626;18.866;2023-02-20T05:21:44;101347.34;;;5.34;59.38
58072;BME280;60383;46.626;18.866;2023-02-20T05:24:29;101346.66;;;5.31;59.28
58072;BME280;60383;46.626;18.866;2023-02-20T05:26:55;101355.78;;;5.30;59.27
58072;BME280;60383;46.626;18.866;2023-02-20T05:29:21;101359.78;;;5.24;58.94
58072;BME280;60383;46.626;18.866;2023-02-20T05:31:47;101372.41;;;5.25;59.51
58072;BME280;60383;46.626;18.866;2023-02-20T05:34:12;101373.94;;;5.29;58.79
58072;BME280;60383;46.626;18.866;2023-02-20T05:36:38;101376.16;;;5.37;58.52
58072;BME280;60383;46.626;18.866;2023-02-20T05:39:04;101378.78;;;5.38;59.23
58072;BME280;60383;46.626;18.866;2023-02-20T05:41:30;101369.19;;;5.33;59.04
58072;BME280;60383;46.626;18.866;2023-02-20T05:43:55;101385.38;;;5.34;59.57
58072;BME280;60383;46.626;18.866;2023-02-20T05:46:23;101386.44;;;5.32;59.60
58072;BME280;60383;46.626;18.866;2023-02-20T05:48:50;101392.69;;;5.19;59.35
58072;BME280;60383;46.626;18.866;2023-02-20T05:51:28;101392.84;;;5.31;59.88
58072;BME280;60383;46.626;18.866;2023-02-20T05:53:54;101386.72;;;5.41;58.77
58072;BME280;60383;46.626;18.866;2023-02-20T05:56:20;101373.84;;;5.31;59.71
58072;BME280;60383;46.626;18.866;2023-02-20T05:58:47;101387.81;;;5.24;59.53
58072;BME280;60383;46.626;18.866;2023-02-20T06:01:20;101390.09;;;5.45;59.06
58072;BME280;60383;46.626;18.866;2023-02-20T06:03:46;101389.69;;;5.51;58.79
58072;BME280;60383;46.626;18.866;2023-02-20T06:06:11;101401.53;;;5.50;58.96
58072;BME280;60383;46.626;18.866;2023-02-20T06:08:38;101414.00;;;5.67;57.51
58072;BME280;60383;46.626;18.866;2023-02-20T06:11:03;101420.59;;;5.78;56.34
58072;BME280;60383;46.626;18.866;2023-02-20T06:13:29;101438.25;;;5.85;55.81
58072;BME280;60383;46.626;18.866;2023-02-20T06:15:54;101429.06;;;5.73;56.03
58072;BME280;60383;46.626;18.866;2023-02-20T06:18:20;101428.38;;;5.69;56.64
58072;BME280;60383;46.626;18.866;2023-02-20T06:20:45;101427.94;;;5.63;55.72
58072;BME280;60383;46.626;18.866;2023-02-20T06:23:11;101429.91;;;5.46;56.57
58072;BME280;60383;46.626;18.866;2023-02-20T06:25:36;101433.13;;;5.38;56.65
58072;BME280;60383;46.626;18.866;2023-02-20T06:28:02;101427.47;;;5.41;56.69
58072;BME280;60383;46.626;18.866;2023-02-20T06:30:27;101425.53;;;5.43;56.75
58072;BME280;60383;46.626;18.866;2023-02-20T06:32:53;101423.69;;;5.44;57.55
58072;BME280;60383;46.626;18.866;2023-02-20T06:35:18;101415.53;;;5.30;58.35
58072;BME280;60383;46.626;18.866;2023-02-20T06:37:44;101428.63;;;5.52;57.96
58072;BME280;60383;46.626;18.866;2023-02-20T06:40:10;101434.16;;;5.36;57.48
58072;BME280;60383;46.626;18.866;2023-02-20T06:42:35;101442.03;;;5.40;58.09
58072;BME280;60383;46.626;18.866;2023-02-20T06:45:01;101436.81;;;5.37;57.84
58072;BME280;60383;46.626;18.866;2023-02-20T06:47:26;101450.09;;;5.27;58.26
58072;BME280;60383;46.626;18.866;2023-02-20T06:49:52;101437.56;;;5.39;59.62
58072;BME280;60383;46.626;18.866;2023-02-20T06:52:17;101430.59;;;5.35;58.48
58072;BME280;60383;46.626;18.866;2023-02-20T06:54:43;101434.22;;;5.63;58.66
58072;BME280;60383;46.626;18.866;2023-02-20T06:57:09;101434.19;;;5.78;58.10
58072;BME280;60383;46.626;18.866;2023-02-20T06:59:34;101445.84;;;5.80;57.11
58072;BME280;60383;46.626;18.866;2023-02-20T07:02:06;101438.63;;;5.93;56.31
58072;BME280;60383;46.626;18.866;2023-02-20T07:04:31;101431.00;;;5.98;56.41
58072;BME280;60383;46.626;18.866;2023-02-20T07:06:57;101427.94;;;5.90;56.00
58072;BME280;60383;46.626;18.866;2023-02-20T07:09:23;101438.38;;;6.11;55.89
58072;BME280;60383;46.626;18.866;2023-02-20T07:11:51;101432.19;;;6.21;55.47
58072;BME280;60383;46.626;18.866;2023-02-20T07:14:16;101433.72;;;6.13;56.14
58072;BME280;60383;46.626;18.866;2023-02-20T07:16:42;101422.75;;;6.27;55.87
58072;BME280;60383;46.626;18.866;2023-02-20T07:19:07;101414.38;;;6.30;56.10
58072;BME280;60383;46.626;18.866;2023-02-20T07:21:33;101419.34;;;6.64;53.92
58072;BME280;60383;46.626;18.866;2023-02-20T07:23:58;101438.25;;;6.39;53.85
58072;BME280;60383;46.626;18.866;2023-02-20T07:26:26;101438.50;;;6.62;54.09
58072;BME280;60383;46.626;18.866;2023-02-20T07:28:53;101436.22;;;6.69;54.15
58072;BME280;60383;46.626;18.866;2023-02-20T07:31:18;101440.91;;;6.93;53.02
58072;BME280;60383;46.626;18.866;2023-02-20T07:33:44;101440.47;;;6.86;53.03
58072;BME280;60383;46.626;18.866;2023-02-20T07:36:11;101447.34;;;6.92;52.47
58072;BME280;60383;46.626;18.866;2023-02-20T07:38:37;101446.66;;;7.01;52.39
58072;BME280;60383;46.626;18.866;2023-02-20T07:41:03;101442.53;;;7.21;51.36
58072;BME280;60383;46.626;18.866;2023-02-20T07:43:29;101442.75;;;7.05;52.16
58072;BME280;60383;46.626;18.866;2023-02-20T07:45:55;101444.56;;;7.43;50.94
58072;BME280;60383;46.626;18.866;2023-02-20T07:48:20;101451.44;;;7.36;52.13
58072;BME280;60383;46.626;18.866;2023-02-20T07:50:45;101440.28;;;7.52;50.74
58072;BME280;60383;46.626;18.866;2023-02-20T07:53:15;101439.56;;;7.74;50.59
58072;BME280;60383;46.626;18.866;2023-02-20T07:55:41;101430.22;;;7.90;49.86
58072;BME280;60383;46.626;18.866;2023-02-20T07:58:07;101431.28;;;8.00;48.71
58072;BME280;60383;46.626;18.866;2023-02-20T08:00:32;101422.09;;;8.25;49.27
58072;BME280;60383;46.626;18.866;2023-02-20T08:02:58;101424.34;;;8.31;48.78
58072;BME280;60383;46.626;18.866;2023-02-20T08:05:24;101431.84;;;8.41;49.04
58072;BME280;60383;46.626;18.866;2023-02-20T08:07:50;101432.41;;;8.57;48.10
58072;BME280;60383;46.626;18.866;2023-02-20T08:10:19;101426.38;;;8.76;48.10
58072;BME280;60383;46.626;18.866;2023-02-20T08:12:45;101426.00;;;8.81;48.26
58072;BME280;60383;46.626;18.866;2023-02-20T08:15:11;101434.84;;;9.07;48.08
58072;BME280;60383;46.626;18.866;2023-02-20T08:17:37;101432.63;;;9.35;47.65
58072;BME280;60383;46.626;18.866;2023-02-20T08:20:04;101431.25;;;9.64;46.41
58072;BME280;60383;46.626;18.866;2023-02-20T08:22:30;101437.16;;;9.80;46.30
58072;BME280;60383;46.626;18.866;2023-02-20T08:24:56;101433.91;;;9.86;46.69
58072;BME280;60383;46.626;18.866;2023-02-20T08:27:21;101424.97;;;9.73;46.05
58072;BME280;60383;46.626;18.866;2023-02-20T08:29:47;101421.00;;;9.77;46.94
58072;BME280;60383;46.626;18.866;2023-02-20T08:32:12;101426.88;;;9.72;46.43
58072;BME280;60383;46.626;18.866;2023-02-20T08:34:37;101427.38;;;9.66;46.90
58072;BME280;60383;46.626;18.866;2023-02-20T08:37:03;101426.28;;;9.57;47.22
58072;BME280;60383;46.626;18.866;2023-02-20T08:39:28;101429.13;;;9.56;48.12
58072;BME280;60383;46.626;18.866;2023-02-20T08:41:54;101423.16;;;9.51;48.05
58072;BME280;60383;46.626;18.866;2023-02-20T08:44:19;101420.81;;;9.57;47.97
58072;BME280;60383;46.626;18.866;2023-02-20T08:46:49;101414.56;;;9.67;48.82
58072;BME280;60383;46.626;18.866;2023-02-20T08:49:15;101413.53;;;9.79;47.93
58072;BME280;60383;46.626;18.866;2023-02-20T08:51:46;101417.34;;;9.99;47.38
58072;BME280;60383;46.626;18.866;2023-02-20T08:54:12;101415.44;;;10.00;47.23
58072;BME280;60383;46.626;18.866;2023-02-20T08:56:38;101410.63;;;9.92;48.54
58072;BME280;60383;46.626;18.866;2023-02-20T08:59:04;101401.22;;;10.50;48.09
58072;BME280;60383;46.626;18.866;2023-02-20T09:01:30;101406.22;;;10.66;47.09
58072;BME280;60383;46.626;18.866;2023-02-20T09:03:55;101403.28;;;11.10;48.00
58072;BME280;60383;46.626;18.866;2023-02-20T09:06:21;101405.19;;;11.19;47.16
58072;BME280;60383;46.626;18.866;2023-02-20T09:08:50;101399.81;;;11.39;46.32
58072;BME280;60383;46.626;18.866;2023-02-20T09:11:15;101390.66;;;11.69;45.72
58072;BME280;60383;46.626;18.866;2023-02-20T09:13:45;101393.63;;;11.46;45.81
58072;BME280;60383;46.626;18.866;2023-02-20T09:16:13;101378.19;;;11.55;45.95
58072;BME280;60383;46.626;18.866;2023-02-20T09:18:38;101364.81;;;11.81;45.85
58072;BME280;60383;46.626;18.866;2023-02-20T09:21:07;101369.88;;;11.86;46.72
58072;BME280;60383;46.626;18.866;2023-02-20T09:23:33;101360.38;;;12.10;45.27
58072;BME280;60383;46.626;18.866;2023-02-20T09:25:58;101362.53;;;12.26;44.80
58072;BME280;60383;46.626;18.866;2023-02-20T09:28:24;101359.88;;;12.54;45.18
58072;BME280;60383;46.626;18.866;2023-02-20T09:30:49;101361.56;;;12.74;45.10
58072;BME280;60383;46.626;18.866;2023-02-20T09:33:19;101353.44;;;12.83;44.45
58072;BME280;60383;46.626;18.866;2023-02-20T09:35:44;101356.13;;;13.02;43.98
58072;BME280;60383;46.626;18.866;2023-02-20T09:38:10;101351.25;;;13.24;44.66
58072;BME280;60383;46.626;18.866;2023-02-20T09:40:35;101348.66;;;13.22;43.34
58072;BME280;60383;46.626;18.866;2023-02-20T09:45:54;101343.09;;;13.32;44.24
58072;BME280;60383;46.626;18.866;2023-02-20T09:51:20;101343.22;;;13.68;44.53
58072;BME280;60383;46.626;18.866;2023-02-20T09:56:17;101345.41;;;14.19;41.85
58072;BME280;60383;46.626;18.866;2023-02-20T09:58:48;101345.09;;;14.04;42.53
58072;BME280;60383;46.626;18.866;2023-02-20T10:01:18;101344.47;;;13.74;42.88
58072;BME280;60383;46.626;18.866;2023-02-20T10:06:18;101349.13;;;14.72;41.29
58072;BME280;60383;46.626;18.866;2023-02-20T10:08:47;101337.38;;;14.96;41.71
58072;BME280;60383;46.626;18.866;2023-02-20T10:11:22;101336.03;;;15.09;40.93
58072;BME280;60383;46.626;18.866;2023-02-20T10:19:33;101331.19;;;14.50;41.01
58072;BME280;60383;46.626;18.866;2023-02-20T10:22:22;101334.63;;;14.52;41.26
58072;BME280;60383;46.626;18.866;2023-02-20T10:25:10;101332.75;;;14.52;41.87
58072;BME280;60383;46.626;18.866;2023-02-20T10:27:59;101315.84;;;14.65;42.44
58072;BME280;60383;46.626;18.866;2023-02-20T10:30:35;101313.69;;;14.85;42.54
58072;BME280;60383;46.626;18.866;2023-02-20T10:35:44;101303.56;;;14.94;43.41
58072;BME280;60383;46.626;18.866;2023-02-20T10:38:14;101295.41;;;15.27;45.19
58072;BME280;60383;46.626;18.866;2023-02-20T10:40:48;101290.91;;;15.18;42.26
58072;BME280;60383;46.626;18.866;2023-02-20T10:46:03;101288.78;;;15.63;40.88
58072;BME280;60383;46.626;18.866;2023-02-20T10:48:32;101285.47;;;15.43;41.74
58072;BME280;60383;46.626;18.866;2023-02-20T10:51:07;101276.72;;;15.05;41.53
58072;BME280;60383;46.626;18.866;2023-02-20T10:53:46;101278.56;;;14.88;42.91
58072;BME280;60383;46.626;18.866;2023-02-20T10:56:23;101273.31;;;14.76;43.55
58072;BME280;60383;46.626;18.866;2023-02-20T11:01:23;101257.72;;;15.44;42.17
58072;BME280;60383;46.626;18.866;2023-02-20T11:04:12;101248.38;;;15.37;41.82
58072;BME280;60383;46.626;18.866;2023-02-20T11:06:51;101249.22;;;15.29;42.15
58072;BME280;60383;46.626;18.866;2023-02-20T11:09:18;101234.38;;;15.30;41.96
58072;BME280;60383;46.626;18.866;2023-02-20T11:11:45;101233.41;;;14.89;42.76
58072;BME280;60383;46.626;18.866;2023-02-20T11:14:31;101231.50;;;14.89;42.74
58072;BME280;60383;46.626;18.866;2023-02-20T11:17:11;101225.44;;;14.85;43.31
58072;BME280;60383;46.626;18.866;2023-02-20T11:19:44;101223.78;;;15.01;42.88
58072;BME280;60383;46.626;18.866;2023-02-20T11:22:11;101223.34;;;14.79;43.68
58072;BME280;60383;46.626;18.866;2023-02-20T11:24:39;101215.78;;;14.90;43.54
58072;BME280;60383;46.626;18.866;2023-02-20T11:27:16;101213.09;;;15.06;43.19
58072;BME280;60383;46.626;18.866;2023-02-20T11:32:41;101195.56;;;15.32;43.15
58072;BME280;60383;46.626;18.866;2023-02-20T11:37:43;101198.69;;;15.37;43.11
58072;BME280;60383;46.626;18.866;2023-02-20T11:40:30;101205.06;;;15.29;43.26
58072;BME280;60383;46.626;18.866;2023-02-20T11:43:27;101193.16;;;15.21;43.68
58072;BME280;60383;46.626;18.866;2023-02-20T11:46:14;101179.72;;;15.34;44.34
58072;BME280;60383;46.626;18.866;2023-02-20T11:51:35;101179.53;;;15.19;43.56
58072;BME280;60383;46.626;18.866;2023-02-20T11:54:24;101175.19;;;15.08;43.71
58072;BME280;60383;46.626;18.866;2023-02-20T11:57:05;101165.22;;;14.64;44.43
58072;BME280;60383;46.626;18.866;2023-02-20T11:59:42;101160.31;;;14.93;44.16
58072;BME280;60383;46.626;18.866;2023-02-20T12:02:24;101167.25;;;15.05;44.19
58072;BME280;60383;46.626;18.866;2023-02-20T12:07:33;101161.84;;;14.79;44.98
58072;BME280;60383;46.626;18.866;2023-02-20T12:10:19;101152.38;;;14.81;44.46
58072;BME280;60383;46.626;18.866;2023-02-20T12:12:46;101157.38;;;14.86;43.98
58072;BME280;60383;46.626;18.866;2023-02-20T12:15:20;101161.16;;;14.85;44.17
58072;BME280;60383;46.626;18.866;2023-02-20T12:17:56;101146.69;;;14.83;44.52
58072;BME280;60383;46.626;18.866;2023-02-20T12:20:29;101145.97;;;14.81;43.89
58072;BME280;60383;46.626;18.866;2023-02-20T12:34:07;101111.75;;;15.33;43.36
58072;BME280;60383;46.626;18.866;2023-02-20T12:36:42;101096.22;;;15.15;43.33
58072;BME280;60383;46.626;18.866;2023-02-20T12:45:02;101076.91;;;14.99;44.00
58072;BME280;60383;46.626;18.866;2023-02-20T12:47:35;101073.94;;;14.76;44.45
58072;BME280;60383;46.626;18.866;2023-02-20T12:58:39;101054.28;;;14.87;43.76
58072;BME280;60383;46.626;18.866;2023-02-20T13:01:11;101044.84;;;14.81;43.59
58072;BME280;60383;46.626;18.866;2023-02-20T13:06:03;101041.53;;;14.69;44.33
58072;BME280;60383;46.626;18.866;2023-02-20T13:09:05;101044.63;;;14.75;43.60
58072;BME280;60383;46.626;18.866;2023-02-20T13:11:39;101035.50;;;14.74;43.18
58072;BME280;60383;46.626;18.866;2023-02-20T13:17:02;101038.81;;;14.86;43.10
58072;BME280;60383;46.626;18.866;2023-02-20T13:19:55;101042.06;;;14.73;42.51
58072;BME280;60383;46.626;18.866;2023-02-20T13:22:22;101042.34;;;14.53;43.01
58072;BME280;60383;46.626;18.866;2023-02-20T13:24:47;101042.91;;;14.22;43.80
58072;BME280;60383;46.626;18.866;2023-02-20T13:27:31;101049.72;;;14.53;43.69
58072;BME280;60383;46.626;18.866;2023-02-20T13:29:59;101050.84;;;14.68;44.17
58072;BME280;60383;46.626;18.866;2023-02-20T13:32:27;101046.69;;;14.73;43.42
58072;BME280;60383;46.626;18.866;2023-02-20T13:34:53;101030.66;;;14.76;43.09
58072;BME280;60383;46.626;18.866;2023-02-20T13:40:33;101026.44;;;14.39;44.44
58072;BME280;60383;46.626;18.866;2023-02-20T13:45:42;101017.56;;;14.62;43.73
58072;BME280;60383;46.626;18.866;2023-02-20T13:54:10;101014.00;;;14.86;43.60
58072;BME280;60383;46.626;18.866;2023-02-20T13:59:09;101009.31;;;14.78;43.95
58072;BME280;60383;46.626;18.866;2023-02-20T14:04:52;100986.88;;;14.65;44.52
58072;BME280;60383;46.626;18.866;2023-02-20T14:07:34;100987.03;;;14.55;44.01
58072;BME280;60383;46.626;18.866;2023-02-20T14:10:05;100975.84;;;14.65;43.68
58072;BME280;60383;46.626;18.866;2023-02-20T14:12:32;100972.41;;;14.54;44.07
58072;BME280;60383;46.626;18.866;2023-02-20T14:15:02;100984.59;;;14.35;43.99
58072;BME280;60383;46.626;18.866;2023-02-20T14:17:28;100978.31;;;14.09;44.35
58072;BME280;60383;46.626;18.866;2023-02-20T14:19:59;100961.63;;;14.10;44.11
58072;BME280;60383;46.626;18.866;2023-02-20T14:22:34;100964.72;;;14.07;44.76
58072;BME280;60383;46.626;18.866;2023-02-20T14:25:24;100964.88;;;14.05;44.19
58072;BME280;60383;46.626;18.866;2023-02-20T14:27:50;100961.56;;;13.94;44.39
58072;BME280;60383;46.626;18.866;2023-02-20T14:30:22;100958.16;;;14.08;44.03
58072;BME280;60383;46.626;18.866;2023-02-20T14:32:53;100966.97;;;14.03;44.01
58072;BME280;60383;46.626;18.866;2023-02-20T14:40:40;100953.94;;;14.30;44.23
58072;BME280;60383;46.626;18.866;2023-02-20T14:43:15;100958.03;;;14.26;44.82
58072;BME280;60383;46.626;18.866;2023-02-20T14:45:43;100946.34;;;14.24;44.79
58072;BME280;60383;46.626;18.866;2023-02-20T14:48:27;100933.44;;;14.33;44.06
58072;BME280;60383;46.626;18.866;2023-02-20T14:51:23;100919.78;;;14.06;44.60
58072;BME280;60383;46.626;18.866;2023-02-20T14:54:14;100910.88;;;14.29;44.36
58072;BME280;60383;46.626;18.866;2023-02-20T14:56:40;100902.78;;;14.19;44.95
58072;BME280;60383;46.626;18.866;2023-02-20T14:59:24;100917.22;;;14.13;44.82
58072;BME280;60383;46.626;18.866;2023-02-20T15:01:52;100924.13;;;14.17;44.36
58072;BME280;60383;46.626;18.866;2023-02-20T15:04:20;100921.56;;;14.24;44.55